createdAt,value
2023-12-23T00:02:26.963Z,1.30
2023-12-23T00:04:57.886Z,3.60
2023-12-23T00:07:28.920Z,2.00
2023-12-23T00:09:59.692Z,1.30
2023-12-23T00:12:30.646Z,1.40
2023-12-23T00:15:01.546Z,1.30
2023-12-23T00:17:32.806Z,1.30
2023-12-23T00:20:04.379Z,1.30
2023-12-23T00:22:35.272Z,1.00
2023-12-23T00:25:07.437Z,0.90
2023-12-23T00:27:38.315Z,1.20
2023-12-23T00:30:13.414Z,1.30
2023-12-23T00:32:45.979Z,1.50
2023-12-23T00:35:17.060Z,1.50
2023-12-23T00:37:48.094Z,1.40
2023-12-23T00:40:19.233Z,1.70
2023-12-23T00:42:49.984Z,1.00
2023-12-23T00:45:20.881Z,1.00
2023-12-23T00:47:52.126Z,0.80
2023-12-23T00:50:23.226Z,0.90
2023-12-23T00:52:54.311Z,1.00
2023-12-23T00:55:28.383Z,1.10
2023-12-23T00:57:59.152Z,1.10
2023-12-23T01:00:30.072Z,1.80
2023-12-23T01:03:00.953Z,1.20
2023-12-23T01:05:31.839Z,0.70
2023-12-23T01:08:02.932Z,1.00
2023-12-23T01:10:33.874Z,0.60
2023-12-23T01:13:06.930Z,1.10
2023-12-23T01:15:37.867Z,1.90
2023-12-23T01:18:09.211Z,0.80
2023-12-23T01:20:41.352Z,1.10
2023-12-23T01:23:12.173Z,0.80
2023-12-23T01:25:43.957Z,1.00
2023-12-23T01:28:14.734Z,1.20
2023-12-23T01:30:45.669Z,0.70
2023-12-23T01:33:16.691Z,1.20
2023-12-23T01:35:47.692Z,1.60
2023-12-23T01:38:18.482Z,0.70
2023-12-23T01:40:49.598Z,0.90
2023-12-23T01:43:20.340Z,0.90
2023-12-23T01:45:51.109Z,0.50
2023-12-23T01:48:24.086Z,0.70
2023-12-23T01:50:58.374Z,1.00
2023-12-23T01:53:30.343Z,1.30
2023-12-23T01:56:02.601Z,1.00
2023-12-23T01:58:33.996Z,1.10
2023-12-23T02:01:05.271Z,1.30
2023-12-23T02:03:36.644Z,0.70
2023-12-23T02:06:07.979Z,1.20
2023-12-23T02:08:38.840Z,1.40
2023-12-23T02:11:11.987Z,0.70
2023-12-23T02:13:51.618Z,1.20
2023-12-23T02:16:22.693Z,0.80
2023-12-23T02:18:53.474Z,1.40
2023-12-23T02:21:24.820Z,0.50
2023-12-23T02:23:55.669Z,0.90
2023-12-23T02:26:30.288Z,1.00
2023-12-23T02:29:03.522Z,0.80
2023-12-23T02:31:36.313Z,0.80
2023-12-23T02:34:07.486Z,0.50
2023-12-23T02:36:38.418Z,0.50
2023-12-23T02:39:10.950Z,1.00
2023-12-23T02:41:43.071Z,1.00
2023-12-23T02:44:13.984Z,0.80
2023-12-23T02:46:45.090Z,1.40
2023-12-23T02:49:15.989Z,0.80
2023-12-23T02:51:46.754Z,0.70
2023-12-23T02:54:17.437Z,0.50
2023-12-23T02:56:48.159Z,0.70
2023-12-23T02:59:18.980Z,0.60
2023-12-23T03:01:49.842Z,0.70
2023-12-23T03:04:20.695Z,0.60
2023-12-23T03:06:51.585Z,0.70
2023-12-23T03:09:22.988Z,0.60
2023-12-23T03:11:54.163Z,0.50
2023-12-23T03:14:25.196Z,0.40
2023-12-23T03:16:56.444Z,0.40
2023-12-23T03:19:28.013Z,0.90
2023-12-23T03:21:58.823Z,0.80
2023-12-23T03:24:29.537Z,0.50
2023-12-23T03:27:00.314Z,0.70
2023-12-23T03:29:31.171Z,0.80
2023-12-23T03:32:02.074Z,0.50
2023-12-23T03:34:32.991Z,1.10
2023-12-23T03:37:04.016Z,0.40
2023-12-23T03:39:34.796Z,0.60
2023-12-23T03:42:05.977Z,0.60
2023-12-23T03:44:36.875Z,0.60
2023-12-23T03:47:09.041Z,0.40
2023-12-23T03:49:39.865Z,0.90
2023-12-23T03:52:10.889Z,0.90
2023-12-23T03:54:41.644Z,0.80
2023-12-23T03:57:12.402Z,0.60
2023-12-23T03:59:43.501Z,0.60
2023-12-23T04:02:14.315Z,0.80
2023-12-23T04:04:45.370Z,0.20
2023-12-23T04:07:16.157Z,0.60
2023-12-23T04:09:47.144Z,0.50
2023-12-23T04:12:18.159Z,0.40
2023-12-23T04:14:49.059Z,0.50
2023-12-23T04:17:19.875Z,1.00
2023-12-23T04:19:51.673Z,0.90
2023-12-23T04:22:22.522Z,0.50
2023-12-23T04:24:53.258Z,0.60
2023-12-23T04:27:24.288Z,0.50
2023-12-23T04:29:55.120Z,0.60
2023-12-23T04:32:25.994Z,1.10
2023-12-23T04:34:57.744Z,0.40
2023-12-23T04:37:28.754Z,0.70
2023-12-23T04:39:59.855Z,0.60
2023-12-23T04:42:30.960Z,0.80
2023-12-23T04:45:01.827Z,0.80
2023-12-23T04:47:32.903Z,0.30
2023-12-23T04:50:04.538Z,0.30
2023-12-23T04:52:35.467Z,0.80
2023-12-23T04:55:10.843Z,0.50
2023-12-23T04:57:42.384Z,1.60
2023-12-23T05:00:15.038Z,0.50
2023-12-23T05:02:45.979Z,0.50
2023-12-23T05:05:17.106Z,0.80
2023-12-23T05:07:49.858Z,0.60
2023-12-23T05:10:22.627Z,0.40
2023-12-23T05:12:53.697Z,0.40
2023-12-23T05:15:24.680Z,0.80
2023-12-23T05:17:55.687Z,0.70
2023-12-23T05:20:26.826Z,0.60
2023-12-23T05:22:57.608Z,0.90
2023-12-23T05:25:28.501Z,0.60
2023-12-23T05:27:59.250Z,0.60
2023-12-23T05:30:30.696Z,0.30
2023-12-23T05:33:01.688Z,1.40
2023-12-23T05:35:32.907Z,0.40
2023-12-23T05:38:04.831Z,0.80
2023-12-23T05:40:35.992Z,0.30
2023-12-23T05:43:07.282Z,0.30
2023-12-23T05:45:38.478Z,0.10
2023-12-23T05:48:10.680Z,1.50
2023-12-23T05:50:41.684Z,0.30
2023-12-23T05:53:12.570Z,0.40
2023-12-23T05:55:43.934Z,0.70
2023-12-23T05:58:15.115Z,0.80
2023-12-23T06:00:46.574Z,0.50
2023-12-23T06:03:17.498Z,0.30
2023-12-23T06:05:48.621Z,0.40
2023-12-23T06:08:19.662Z,0.50
2023-12-23T06:10:57.521Z,0.60
2023-12-23T06:13:29.890Z,0.40
2023-12-23T06:16:06.131Z,0.20
2023-12-23T06:18:37.146Z,0.20
2023-12-23T06:21:08.727Z,0.50
2023-12-23T06:23:39.424Z,0.90
2023-12-23T06:26:11.791Z,1.00
2023-12-23T06:28:42.548Z,0.70
2023-12-23T06:31:13.413Z,0.40
2023-12-23T06:33:44.541Z,0.50
2023-12-23T06:36:15.400Z,0.40
2023-12-23T06:38:46.485Z,0.30
2023-12-23T06:41:17.564Z,0.40
2023-12-23T06:43:52.685Z,0.40
2023-12-23T06:46:24.804Z,0.50
2023-12-23T06:48:56.043Z,0.80
2023-12-23T06:51:27.220Z,0.40
2023-12-23T06:53:59.163Z,0.30
2023-12-23T06:56:29.976Z,0.60
2023-12-23T06:59:02.617Z,0.60
2023-12-23T07:01:40.381Z,1.10
2023-12-23T07:04:12.950Z,0.30
2023-12-23T07:06:44.106Z,1.00
2023-12-23T07:09:15.364Z,0.40
2023-12-23T07:11:47.449Z,0.30
2023-12-23T07:14:18.650Z,0.50
2023-12-23T07:16:49.531Z,1.00
2023-12-23T07:19:21.137Z,0.20
2023-12-23T07:21:54.792Z,0.40
2023-12-23T07:24:25.925Z,0.60
2023-12-23T07:26:56.963Z,0.20
2023-12-23T07:29:28.133Z,0.50
2023-12-23T07:31:59.522Z,0.10
2023-12-23T07:34:30.531Z,0.30
2023-12-23T07:37:01.433Z,0.30
2023-12-23T07:39:32.298Z,0.20
2023-12-23T07:42:04.223Z,0.20
2023-12-23T07:44:38.086Z,0.50
2023-12-23T07:47:11.537Z,0.60
2023-12-23T07:49:42.584Z,1.30
2023-12-23T07:52:13.668Z,0.30
2023-12-23T07:54:44.965Z,0.20
2023-12-23T07:57:15.977Z,0.50
2023-12-23T07:59:47.951Z,0.40
2023-12-23T08:02:19.201Z,1.10
2023-12-23T08:04:50.636Z,0.50
2023-12-23T08:07:22.202Z,0.20
2023-12-23T08:09:53.004Z,0.20
2023-12-23T08:12:23.824Z,0.20
2023-12-23T08:14:54.896Z,0.90
2023-12-23T08:17:26.045Z,0.20
2023-12-23T08:19:57.081Z,0.40
2023-12-23T08:22:28.244Z,1.00
2023-12-23T08:24:59.319Z,0.40
2023-12-23T08:27:30.226Z,0.80
2023-12-23T08:30:01.281Z,0.50
2023-12-23T08:32:32.349Z,0.80
2023-12-23T08:35:03.698Z,0.40
2023-12-23T08:37:34.877Z,0.40
2023-12-23T08:40:06.466Z,0.20
2023-12-23T08:42:38.024Z,0.50
2023-12-23T08:45:10.631Z,0.40
2023-12-23T08:47:41.653Z,0.80
2023-12-23T08:50:13.598Z,0.70
2023-12-23T08:52:44.817Z,0.50
2023-12-23T08:55:16.376Z,0.40
2023-12-23T08:57:47.331Z,0.40
2023-12-23T09:00:20.992Z,0.80
2023-12-23T09:02:52.021Z,0.50
2023-12-23T09:05:23.896Z,1.20
2023-12-23T09:07:55.801Z,0.50
2023-12-23T09:10:26.997Z,0.80
2023-12-23T09:12:57.866Z,1.40
2023-12-23T09:15:29.209Z,1.30
2023-12-23T09:18:00.380Z,0.40
2023-12-23T09:20:31.880Z,0.70
2023-12-23T09:23:03.314Z,1.30
2023-12-23T09:25:34.361Z,0.80
2023-12-23T09:28:06.853Z,0.60
2023-12-23T09:30:38.062Z,0.70
2023-12-23T09:33:09.611Z,0.50
2023-12-23T09:35:40.924Z,0.90
2023-12-23T09:38:12.427Z,0.60
2023-12-23T09:40:43.600Z,3.10
2023-12-23T09:43:16.461Z,4.10
2023-12-23T09:45:50.051Z,1.50
2023-12-23T09:48:21.221Z,1.50
2023-12-23T09:50:52.114Z,2.70
2023-12-23T09:53:24.570Z,2.70
2023-12-23T09:55:55.634Z,1.50
2023-12-23T09:58:26.511Z,1.60
2023-12-23T10:00:57.510Z,3.30
2023-12-23T10:03:30.090Z,3.30
2023-12-23T10:06:03.780Z,2.70
2023-12-23T10:08:34.835Z,4.00
2023-12-23T10:11:06.727Z,3.50
2023-12-23T10:13:38.318Z,4.20
2023-12-23T10:16:11.129Z,1.80
2023-12-23T10:18:42.202Z,1.90
2023-12-23T10:21:13.649Z,1.90
2023-12-23T10:23:44.792Z,3.60
2023-12-23T10:26:17.262Z,1.60
2023-12-23T10:28:56.964Z,1.90
2023-12-23T10:31:33.645Z,1.60
2023-12-23T10:34:13.739Z,1.90
2023-12-23T10:39:25.152Z,1.60
2023-12-23T10:42:05.559Z,1.00
2023-12-23T10:44:38.110Z,1.30
2023-12-23T10:47:09.986Z,1.50
2023-12-23T10:49:42.030Z,1.90
2023-12-23T10:52:14.595Z,1.70
2023-12-23T10:54:46.452Z,1.80
2023-12-23T10:57:19.438Z,1.70
2023-12-23T10:59:51.267Z,3.10
2023-12-23T11:02:28.772Z,3.00
2023-12-23T11:05:01.895Z,2.60
2023-12-23T11:07:35.570Z,3.60
2023-12-23T11:10:08.840Z,3.30
2023-12-23T11:12:41.503Z,3.10
2023-12-23T11:15:14.050Z,2.40
2023-12-23T11:17:48.401Z,2.50
2023-12-23T11:20:51.635Z,3.90
2023-12-23T11:23:36.997Z,3.50
2023-12-23T11:26:28.618Z,3.20
2023-12-23T11:29:00.063Z,5.00
2023-12-23T11:31:32.475Z,4.20
2023-12-23T11:34:13.762Z,3.90
2023-12-23T11:36:46.176Z,2.80
2023-12-23T11:39:20.085Z,2.70
2023-12-23T11:41:52.167Z,2.80
2023-12-23T11:44:24.605Z,3.60
2023-12-23T11:46:58.101Z,2.90
2023-12-23T11:49:29.320Z,2.50
2023-12-23T11:52:00.696Z,2.50
2023-12-23T11:54:32.280Z,2.50
2023-12-23T11:57:03.658Z,2.90
2023-12-23T11:59:37.447Z,3.10
2023-12-23T12:02:10.539Z,2.50
2023-12-23T12:04:42.053Z,2.90
2023-12-23T12:07:14.064Z,2.70
2023-12-23T12:09:45.683Z,2.40
2023-12-23T12:12:17.135Z,3.40
2023-12-23T12:14:48.582Z,2.70
2023-12-23T12:17:19.843Z,2.40
2023-12-23T12:19:56.320Z,2.50
2023-12-23T12:22:27.433Z,2.90
2023-12-23T12:24:58.405Z,2.90
2023-12-23T12:27:29.503Z,2.50
2023-12-23T12:30:01.993Z,3.20
2023-12-23T12:32:33.767Z,2.70
2023-12-23T12:35:12.243Z,2.60
2023-12-23T12:37:53.325Z,2.50
2023-12-23T12:44:07.338Z,2.50
2023-12-23T12:46:39.182Z,2.40
2023-12-23T12:49:10.686Z,3.10
2023-12-23T12:51:42.251Z,2.80
2023-12-23T12:54:13.406Z,3.10
2023-12-23T12:56:45.330Z,3.10
2023-12-23T12:59:16.660Z,2.50
2023-12-23T13:01:48.194Z,2.40
2023-12-23T13:04:19.474Z,2.60
2023-12-23T13:06:50.744Z,2.90
2023-12-23T13:09:57.532Z,2.50
2023-12-23T13:12:29.187Z,2.90
2023-12-23T13:15:00.184Z,2.40
2023-12-23T13:17:31.788Z,2.20
2023-12-23T13:20:03.489Z,2.10
2023-12-23T13:22:34.627Z,2.80
2023-12-23T13:25:06.778Z,3.30
2023-12-23T13:27:37.639Z,2.70
2023-12-23T13:30:11.553Z,2.30
2023-12-23T13:35:13.069Z,2.80
2023-12-23T13:37:44.710Z,3.90
2023-12-23T13:40:16.219Z,5.20
2023-12-23T13:42:47.490Z,2.70
2023-12-23T13:45:18.848Z,2.00
2023-12-23T13:47:53.759Z,3.60
2023-12-23T13:50:25.455Z,3.90
2023-12-23T13:52:56.843Z,5.50
2023-12-23T13:55:28.213Z,2.50
2023-12-23T13:57:59.366Z,4.00
2023-12-23T14:00:32.728Z,2.40
2023-12-23T14:03:03.930Z,2.80
2023-12-23T14:05:36.188Z,2.70
2023-12-23T14:08:09.043Z,2.80
2023-12-23T14:10:40.206Z,6.50
2023-12-23T14:13:11.432Z,3.90
2023-12-23T14:15:42.532Z,5.10
2023-12-23T14:18:13.482Z,4.20
2023-12-23T14:20:44.907Z,3.60
2023-12-23T14:23:16.475Z,3.60
2023-12-23T14:25:47.618Z,5.50
2023-12-23T14:28:19.058Z,4.00
2023-12-23T14:30:50.174Z,4.90
2023-12-23T14:33:21.792Z,4.90
2023-12-23T14:35:53.098Z,3.70
2023-12-23T14:38:24.110Z,5.00
2023-12-23T14:40:55.384Z,3.80
2023-12-23T14:43:26.709Z,4.70
2023-12-23T14:45:57.817Z,4.80
2023-12-23T14:48:29.032Z,4.10
2023-12-23T14:51:00.513Z,4.80
2023-12-23T14:53:31.830Z,4.50
2023-12-23T14:56:03.097Z,4.00
2023-12-23T14:58:34.358Z,5.50
2023-12-23T15:01:05.782Z,4.30
2023-12-23T15:03:37.101Z,4.30
2023-12-23T15:06:16.029Z,3.50
2023-12-23T15:08:47.073Z,3.70
2023-12-23T15:11:18.353Z,4.70
2023-12-23T15:13:50.266Z,4.50
2023-12-23T15:16:21.606Z,4.60
2023-12-23T15:18:56.097Z,4.30
2023-12-23T15:21:28.704Z,4.00
2023-12-23T15:24:00.445Z,4.30
2023-12-23T15:26:31.672Z,3.80
2023-12-23T15:29:05.895Z,4.80
2023-12-23T15:31:36.879Z,5.20
2023-12-23T15:34:08.125Z,6.60
2023-12-23T15:36:39.221Z,4.00
2023-12-23T15:39:10.545Z,5.90
2023-12-23T15:41:41.631Z,5.60
2023-12-23T15:44:13.979Z,4.90
2023-12-23T15:46:45.123Z,5.20
2023-12-23T15:49:16.837Z,5.40
2023-12-23T15:51:48.369Z,4.90
2023-12-23T15:54:19.839Z,5.00
2023-12-23T15:56:53.021Z,4.90
2023-12-23T15:59:26.168Z,5.40
2023-12-23T16:01:57.380Z,4.60
2023-12-23T16:04:29.657Z,5.40
2023-12-23T16:07:03.717Z,5.70
2023-12-23T16:09:36.422Z,4.60
2023-12-23T16:12:08.665Z,5.40
2023-12-23T16:14:42.388Z,4.70
2023-12-23T16:17:16.297Z,6.00
2023-12-23T16:22:17.702Z,5.20
2023-12-23T16:24:48.723Z,4.60
2023-12-23T16:27:20.884Z,4.30
2023-12-23T16:29:52.513Z,3.90
2023-12-23T16:32:26.420Z,7.00
2023-12-23T16:34:57.918Z,4.70
2023-12-23T16:37:29.341Z,5.00
2023-12-23T16:40:00.654Z,5.40
2023-12-23T16:42:31.798Z,4.70
2023-12-23T16:45:06.722Z,4.60
2023-12-23T16:47:37.951Z,4.40
2023-12-23T16:50:10.628Z,4.40
2023-12-23T16:52:41.988Z,5.40
2023-12-23T16:55:14.013Z,4.40
2023-12-23T16:57:45.193Z,5.60
2023-12-23T17:00:18.816Z,5.10
2023-12-23T17:02:50.030Z,4.40
2023-12-23T17:05:21.559Z,4.80
2023-12-23T17:07:52.932Z,3.40
2023-12-23T17:10:24.263Z,4.50
2023-12-23T17:12:55.457Z,11.30
2023-12-23T17:15:26.614Z,8.20
2023-12-23T17:17:58.234Z,9.00
2023-12-23T17:20:29.421Z,7.80
2023-12-23T17:23:00.441Z,6.60
2023-12-23T17:25:34.341Z,7.40
2023-12-23T17:28:10.398Z,6.50
2023-12-23T17:30:43.539Z,6.10
2023-12-23T17:33:18.197Z,4.30
2023-12-23T17:35:49.581Z,5.40
2023-12-23T17:38:20.679Z,6.50
2023-12-23T17:40:51.830Z,6.30
2023-12-23T17:43:23.064Z,4.60
2023-12-23T17:45:54.036Z,6.70
2023-12-23T17:48:25.327Z,5.10
2023-12-23T17:50:56.891Z,6.60
2023-12-23T17:53:28.343Z,5.80
2023-12-23T17:55:59.540Z,5.50
2023-12-23T17:58:30.709Z,5.40
2023-12-23T18:01:01.881Z,4.90
2023-12-23T18:03:33.733Z,6.00
2023-12-23T18:06:05.219Z,6.20
2023-12-23T18:08:36.254Z,4.10
2023-12-23T18:11:08.423Z,3.90
2023-12-23T18:13:39.600Z,4.70
2023-12-23T18:16:13.671Z,4.20
2023-12-23T18:18:45.293Z,4.90
2023-12-23T18:21:16.942Z,6.80
2023-12-23T18:23:48.134Z,4.10
2023-12-23T18:26:19.213Z,4.50
2023-12-23T18:28:50.602Z,6.50
2023-12-23T18:31:21.943Z,5.60
2023-12-23T18:33:55.625Z,4.60
2023-12-23T18:36:26.850Z,4.30
2023-12-23T18:38:58.309Z,6.00
2023-12-23T18:41:29.564Z,5.00
2023-12-23T18:44:01.922Z,4.60
2023-12-23T18:46:33.016Z,4.70
2023-12-23T18:49:04.214Z,4.70
2023-12-23T18:51:35.771Z,4.10
2023-12-23T18:54:07.072Z,4.30
2023-12-23T18:56:39.235Z,4.50
2023-12-23T18:59:11.433Z,4.80
2023-12-23T19:01:42.546Z,5.70
2023-12-23T19:04:13.845Z,6.10
2023-12-23T19:06:45.953Z,6.20
2023-12-23T19:09:16.980Z,5.90
2023-12-23T19:11:48.133Z,6.50
2023-12-23T19:14:20.204Z,7.00
2023-12-23T19:16:51.405Z,6.40
2023-12-23T19:19:22.638Z,9.80
2023-12-23T19:21:54.000Z,5.50
2023-12-23T19:24:25.064Z,5.90
2023-12-23T19:26:56.528Z,5.30
2023-12-23T19:29:27.749Z,5.70
2023-12-23T19:31:58.859Z,5.40
2023-12-23T19:34:30.472Z,5.60
2023-12-23T19:37:02.429Z,5.20
2023-12-23T19:39:33.576Z,6.10
2023-12-23T19:42:06.359Z,5.00
2023-12-23T19:44:37.591Z,5.80
2023-12-23T19:47:10.653Z,5.50
2023-12-23T19:49:43.838Z,4.40
2023-12-23T19:52:15.128Z,6.10
2023-12-23T19:54:45.921Z,5.20
2023-12-23T19:57:17.259Z,5.10
2023-12-23T19:59:48.675Z,4.40
2023-12-23T20:02:20.712Z,6.20
2023-12-23T20:04:51.916Z,5.80
2023-12-23T20:07:23.673Z,3.80
2023-12-23T20:09:55.126Z,4.20
2023-12-23T20:12:26.284Z,5.80
2023-12-23T20:14:57.354Z,7.30
2023-12-23T20:17:28.578Z,4.20
2023-12-23T20:19:59.703Z,4.90
2023-12-23T20:22:31.021Z,5.80
2023-12-23T20:25:02.158Z,6.40
2023-12-23T20:27:33.314Z,4.50
2023-12-23T20:30:04.918Z,5.20
2023-12-23T20:32:37.394Z,4.70
2023-12-23T20:35:09.949Z,5.10
2023-12-23T20:37:41.307Z,5.30
2023-12-23T20:40:14.728Z,6.00
2023-12-23T20:42:46.274Z,4.50
2023-12-23T20:45:17.442Z,5.70
2023-12-23T20:47:48.818Z,5.50
2023-12-23T20:50:21.145Z,4.20
2023-12-23T20:52:53.230Z,3.50
2023-12-23T20:55:24.777Z,4.40
2023-12-23T20:57:55.883Z,6.50
2023-12-23T21:00:27.364Z,5.50
2023-12-23T21:02:58.730Z,6.00
2023-12-23T21:05:30.256Z,5.90
2023-12-23T21:08:02.486Z,4.90
2023-12-23T21:10:37.229Z,4.90
2023-12-23T21:13:09.865Z,4.40
2023-12-23T21:15:41.111Z,6.80
2023-12-23T21:18:12.742Z,5.30
2023-12-23T21:20:44.015Z,4.40
2023-12-23T21:23:15.563Z,4.00
2023-12-23T21:25:47.684Z,4.10
2023-12-23T21:28:24.618Z,4.50
2023-12-23T21:30:56.577Z,4.00
2023-12-23T21:33:29.056Z,5.50
2023-12-23T21:36:00.288Z,5.10
2023-12-23T21:38:31.490Z,5.60
2023-12-23T21:41:02.643Z,3.60
2023-12-23T21:43:34.270Z,4.30
2023-12-23T21:46:05.235Z,5.30
2023-12-23T21:48:37.057Z,5.80
2023-12-23T21:51:08.984Z,5.00
2023-12-23T21:53:40.312Z,4.80
2023-12-23T21:56:13.207Z,5.80
2023-12-23T21:58:44.256Z,4.40
2023-12-23T22:01:18.142Z,6.40
2023-12-23T22:06:20.004Z,4.00
2023-12-23T22:08:52.177Z,6.00
2023-12-23T22:11:25.569Z,4.50
2023-12-23T22:13:56.863Z,6.50
2023-12-23T22:16:27.927Z,6.80
2023-12-23T22:18:58.761Z,4.50
2023-12-23T22:21:29.751Z,4.40
2023-12-23T22:24:00.584Z,3.50
2023-12-23T22:26:32.198Z,4.10
2023-12-23T22:29:03.162Z,3.70
2023-12-23T22:31:34.334Z,4.80
2023-12-23T22:34:05.854Z,4.40
2023-12-23T22:36:36.729Z,4.00
2023-12-23T22:39:07.794Z,4.60
2023-12-23T22:41:38.883Z,4.10
2023-12-23T22:44:09.694Z,3.50
2023-12-23T22:46:40.717Z,3.40
2023-12-23T22:49:11.740Z,4.50
2023-12-23T22:51:43.867Z,3.40
2023-12-23T22:54:14.864Z,4.00
2023-12-23T22:56:46.053Z,2.80
2023-12-23T22:59:16.872Z,3.70
2023-12-23T23:01:47.904Z,3.10
2023-12-23T23:04:19.152Z,3.80
2023-12-23T23:06:50.311Z,3.50
2023-12-23T23:09:23.044Z,2.80
2023-12-23T23:11:54.023Z,3.90
2023-12-23T23:14:25.184Z,3.10
2023-12-23T23:16:57.157Z,2.90
2023-12-23T23:19:28.121Z,4.10
2023-12-23T23:21:59.533Z,3.80
2023-12-23T23:24:31.002Z,3.80
2023-12-23T23:27:01.768Z,2.50
2023-12-23T23:29:33.950Z,4.00
2023-12-23T23:32:05.461Z,3.70
2023-12-23T23:34:36.200Z,3.00
2023-12-23T23:37:07.278Z,2.50
2023-12-23T23:39:38.069Z,2.50
2023-12-23T23:42:09.113Z,3.80
2023-12-23T23:44:40.479Z,3.00
2023-12-23T23:47:11.554Z,2.90
2023-12-23T23:49:43.027Z,3.20
2023-12-23T23:52:14.059Z,4.60
2023-12-23T23:54:45.066Z,2.50
2023-12-23T23:57:17.560Z,4.50
2023-12-23T23:59:48.492Z,2.50
